Flight Track Log - Related Links

Times and Time Zones

All times are in EDT time to prevent confusion due to time zone crossing. See the UAL582 flight status page for this flight to view local times or setup timezone preferences in your user account.


Time Position Orientation Groundspeed Altitude Reporting Facility
EDT Latitude Longitude Course Direction KTS MPH feet Rate Location/Type
Sun 05:48:33 PM 43.6333 -79.7000 257° West 160 184 3,100  Level Toronto Center
Sun 05:49:33 PM 43.6167 -79.7667 251° West 240 276 4,800 1,950 Climbing Toronto Center
Sun 05:50:00 PM 43.7047 -80.0230 277° West  Level FlightAware Approximate
Sun 05:50:33 PM 43.6500 -79.8667 295° West 270 311 7,000  Level Toronto Center
Sun 05:51:00 PM 43.7161 -80.1597 277° West  Level FlightAware Approximate
Sun 05:51:33 PM 43.6667 -79.9500 285° West 270 311 8,200  Level Toronto Center
Sun 05:52:00 PM 43.7240 -80.2965 277° West  Level FlightAware Approximate
Sun 05:52:33 PM 43.6833 -80.0667 281° West 280 322 11,200  Level Toronto Center
Sun 05:53:00 PM 43.7333 -80.4333 270° West  Level FlightAware Approximate
Sun 05:53:34 PM 43.7000 -80.1833 281° West 330 380 12,300  Level Toronto Center
Sun 05:54:00 PM 43.7296 -80.5726 257° West  Level FlightAware Approximate
Sun 05:54:33 PM 43.7167 -80.3167 280° West 360 414 15,700  Level Toronto Center
Sun 05:55:33 PM 43.7333 -80.4667 279° West 350 403 18,000 2,200 Climbing Toronto Center
Sun 05:56:33 PM 43.7333 -80.6000 270° West 360 414 20,100 1,900 Climbing Toronto Center
Sun 05:57:33 PM 43.7000 -80.7333 251° West 380 437 21,800 1,636 Climbing Toronto Center
Sun 05:58:34 PM 43.6500 -80.8833 245° Southwest 390 449 23,400 1,550 Climbing Toronto Center
Sun 05:59:33 PM 43.6167 -81.0167 251° West 400 460 24,900 1,765 Climbing Toronto Center
Sun 06:00:33 PM 43.6000 -81.1833 262° West 410 472 26,900 1,150 Climbing Toronto Center
Sun 06:01:33 PM 43.5667 -81.3333 253° West 420 483 27,200 750 Climbing Toronto Center
Sun 06:02:33 PM 43.5333 -81.5000 255° West 440 506 28,400 1,339 Climbing Toronto Center
Sun 06:03:34 PM 43.5000 -81.6500 253° West 450 518 29,900 1,650 Climbing Toronto Center
Sun 06:04:33 PM 43.4667 -81.8167 255° West 440 506 31,700 1,412 Climbing Toronto Center
Sun 06:05:33 PM 43.4000 -81.9667 239° Southwest 440 506 32,700 1,100 Climbing Toronto Center
Sun 06:06:33 PM 43.3667 -82.1333 255° West 430 495 33,900 650 Climbing Toronto Center
Sun 06:07:33 PM 43.3500 -82.3000 262° West 430 495 34,000 -100 Climbing Toronto Center
Sun 06:08:33 PM 43.3000 -82.4500 245° Southwest 440 506 33,700 -350 Descending Toronto Center
Sun 06:09:33 PM 43.2667 -82.6167 255° West 440 506 33,300 -450 Descending Toronto Center
Sun 06:10:33 PM 43.2167 -82.7833 248° West 450 518 32,800 -500 Descending Toronto Center
Sun 06:11:33 PM 43.1833 -82.9333 253° West 450 518 32,300 -400 Descending Toronto Center
Sun 06:12:33 PM 43.1333 -83.1000 248° West 460 529 32,000 -150 Descending Toronto Center
Sun 06:13:33 PM 43.0833 -83.2667 248° West 460 529 32,000  Level Toronto Center
Sun 06:14:33 PM 43.0500 -83.4167 253° West 450 518 32,000 -178 Level Toronto Center
Sun 06:15:48 PM 43.0061 -83.6069 253° West 454 522 31,600 -444 Descending Cleveland Center
Sun 06:16:48 PM 42.9636 -83.7922 253° West 454 522 31,000 -550 Descending Cleveland Center
Sun 06:17:48 PM 42.9461 -83.9672 262° West 459 528 30,500 -480 Descending Cleveland Center
Sun 06:18:53 PM 42.9275 -84.1519 262° West 468 539 30,000 -236 Descending Chicago Center
Sun 06:19:55 PM 42.9094 -84.3197 262° West 452 520 30,000  Level Chicago Center
Sun 06:20:57 PM 42.8936 -84.4894 263° West 453 521 30,000  Level Chicago Center
Sun 06:21:59 PM 42.8767 -84.6575 262° West 450 518 30,000  Level Chicago Center
Sun 06:23:01 PM 42.8586 -84.8278 262° West 455 524 30,000  Level Chicago Center
Sun 06:24:03 PM 42.8403 -84.9981 262° West 454 522 30,000  Level Chicago Center
Sun 06:25:05 PM 42.8192 -85.2025 262° West 455 524 30,000 -242 Level Chicago Center
Sun 06:26:07 PM 42.7997 -85.3764 261° West 462 532 29,500 -1,161 Descending Chicago Center
Sun 06:27:09 PM 42.7758 -85.5578 260° West 482 555 27,600 -1,887 Descending Chicago Center
Sun 06:28:11 PM 42.7442 -85.7317 256° West 474 545 25,600 -1,984 Descending Chicago Center
Sun 06:29:13 PM 42.7139 -85.8967 256° West 453 521 23,500 -1,968 Descending Chicago Center
Sun 06:30:16 PM 42.6850 -86.0583 256° West 441 507 21,500 -1,632 Descending Chicago Center
Sun 06:31:18 PM 42.6558 -86.2164 256° West 432 497 20,100 -726 Descending Chicago Center
Sun 06:32:20 PM 42.6261 -86.3689 255° West 420 483 20,000 -144 Descending Chicago Center
Sun 06:33:23 PM 42.5925 -86.5497 256° West 410 472 19,800 -1,113 Descending Chicago Center
Sun 06:34:24 PM 42.5667 -86.6936 256° West 405 466 17,700 -2,146 Descending Chicago Center
Sun 06:35:26 PM 42.5306 -86.8369 251° West 389 448 15,400 -2,177 Descending Chicago Center
Sun 06:36:28 PM 42.4953 -86.9711 250° West 380 437 13,200 -2,226 Descending Chicago Center
Sun 06:37:30 PM 42.4581 -87.0969 248° West 363 418 10,800 -1,548 Descending Chicago Center
Sun 06:38:32 PM 42.4250 -87.2197 250° West 350 403 10,000 -629 Descending Chicago Center
Sun 06:39:34 PM 42.3908 -87.3447 250° West 301 346 9,500 -435 Descending Chicago Center
Sun 06:40:36 PM 42.3639 -87.4403 249° West 295 339 9,100 -677 Descending Chicago Center
Sun 06:41:38 PM 42.3358 -87.5442 250° West 295 339 8,100 -1,056 Descending Chicago Center
Sun 06:42:41 PM 42.2531 -87.5808 198° South 287 330 6,900 -1,056 Descending Chicago Center
Sun 06:43:43 PM 42.1742 -87.5711 175° South 284 327 5,900 -919 Descending Chicago Center
Sun 06:44:45 PM 42.1000 -87.5628 175° South 271 312 5,000 -1,016 Descending Chicago Center
Sun 06:45:47 PM 42.0456 -87.6175 217° Southwest 245 282 3,800 -1,161 Descending Chicago Center

Login

Don't have an account? Register now (free) for customized features, flight alerts, and more!